createdAt,value
2018-05-01T00:00:07.896Z,67.93
2018-05-01T00:01:07.931Z,68.40
2018-05-01T00:02:07.965Z,68.50
2018-05-01T00:05:10.948Z,68.40
2018-05-01T00:05:51.775Z,68.78
2018-05-01T00:06:51.811Z,68.40
2018-05-01T00:07:51.860Z,68.69
2018-05-01T00:08:51.879Z,69.26
2018-05-01T00:09:51.918Z,69.26
2018-05-01T00:10:51.946Z,69.17
2018-05-01T00:11:51.984Z,69.26
2018-05-01T00:12:52.012Z,69.35
2018-05-01T00:13:52.046Z,69.74
2018-05-01T00:14:52.081Z,69.64
2018-05-01T00:15:52.173Z,69.74
2018-05-01T00:16:52.231Z,69.45
2018-05-01T00:17:52.253Z,69.83
2018-05-01T00:18:52.228Z,70.02
2018-05-01T00:19:52.311Z,69.74
2018-05-01T00:20:52.435Z,70.02
2018-05-01T00:21:52.453Z,70.40
2018-05-01T00:22:52.450Z,70.21
2018-05-01T00:23:52.511Z,70.21
2018-05-01T00:24:52.430Z,70.50
2018-05-01T00:25:52.535Z,70.21
2018-05-01T00:26:52.592Z,70.59
2018-05-01T00:27:52.586Z,70.12
2018-05-01T00:28:52.633Z,69.74
2018-05-01T00:29:52.596Z,70.02
2018-05-01T00:30:52.716Z,69.64
2018-05-01T00:31:52.870Z,70.02
2018-05-01T00:32:52.798Z,70.02
2018-05-01T00:33:52.814Z,69.54
2018-05-01T00:34:52.854Z,69.93
2018-05-01T00:35:52.884Z,69.45
2018-05-01T00:36:52.954Z,70.21
2018-05-01T00:37:52.913Z,70.21
2018-05-01T00:38:52.900Z,70.21
2018-05-01T00:39:52.943Z,70.78
2018-05-01T00:40:53.067Z,70.50
2018-05-01T00:41:53.132Z,70.40
2018-05-01T00:42:53.138Z,70.40
2018-05-01T00:43:53.173Z,70.59
2018-05-01T00:44:53.199Z,70.50
2018-05-01T00:45:53.229Z,70.40
2018-05-01T00:46:53.195Z,70.69
2018-05-01T00:47:53.206Z,70.88
2018-05-01T00:48:53.242Z,70.88
2018-05-01T00:49:53.273Z,71.36
2018-05-01T00:50:53.308Z,70.78
2018-05-01T00:51:53.342Z,70.78
2018-05-01T00:52:53.375Z,71.26
2018-05-01T00:53:53.409Z,70.97
2018-05-01T00:54:53.444Z,70.75
2018-05-01T00:55:53.479Z,70.84
2018-05-01T00:56:53.514Z,70.21
2018-05-01T00:57:53.547Z,70.56
2018-05-01T00:58:53.581Z,71.36
2018-05-01T00:59:53.617Z,70.27
2018-05-01T01:00:53.648Z,70.40
2018-05-01T01:01:53.682Z,69.54
2018-05-01T01:02:53.716Z,69.64
2018-05-01T01:03:53.750Z,69.54
2018-05-01T01:04:53.785Z,69.35
2018-05-01T01:05:53.818Z,69.51
2018-05-01T01:06:53.853Z,69.93
2018-05-01T01:07:53.885Z,70.21
2018-05-01T01:08:53.920Z,69.74
2018-05-01T01:09:53.956Z,69.74
2018-05-01T01:10:53.989Z,69.89
2018-05-01T01:11:54.021Z,70.02
2018-05-01T01:12:54.055Z,70.37
2018-05-01T01:13:54.091Z,69.64
2018-05-01T01:14:54.125Z,69.35
2018-05-01T01:15:54.157Z,68.88
2018-05-01T01:16:54.192Z,68.21
2018-05-01T01:17:54.225Z,68.30
2018-05-01T01:18:54.259Z,68.40
2018-05-01T01:19:54.293Z,68.50
2018-05-01T01:20:54.328Z,68.40
2018-05-01T01:21:54.361Z,68.12
2018-05-01T01:22:54.395Z,67.74
2018-05-01T01:23:54.427Z,67.51
2018-05-01T01:24:54.464Z,67.32
2018-05-01T01:25:54.495Z,68.46
2018-05-01T01:26:54.531Z,68.46
2018-05-01T01:27:54.564Z,68.56
2018-05-01T01:28:54.598Z,68.37
2018-05-01T01:29:54.631Z,68.56
2018-05-01T01:30:54.674Z,68.37
2018-05-01T01:31:54.707Z,68.75
2018-05-01T01:32:54.731Z,68.18
2018-05-01T01:33:54.766Z,68.37
2018-05-01T01:34:54.807Z,67.99
2018-05-01T01:35:54.834Z,67.89
2018-05-01T01:36:54.876Z,67.99
2018-05-01T01:37:54.901Z,68.08
2018-05-01T01:38:54.935Z,67.22
2018-05-01T01:39:54.967Z,67.03
2018-05-01T01:40:55.003Z,67.47
2018-05-01T01:41:55.036Z,67.10
2018-05-01T01:42:55.070Z,67.95
2018-05-01T01:43:55.103Z,68.15
2018-05-01T01:44:55.137Z,68.43
2018-05-01T01:45:55.172Z,66.81
2018-05-01T01:46:55.205Z,65.38
2018-05-01T01:47:55.246Z,65.00
2018-05-01T01:48:55.277Z,65.19
2018-05-01T01:49:55.305Z,65.86
2018-05-01T01:50:55.345Z,65.86
2018-05-01T01:51:55.373Z,65.95
2018-05-01T01:52:55.406Z,66.53
2018-05-01T01:53:55.438Z,66.81
2018-05-01T01:54:55.477Z,66.33
2018-05-01T01:55:55.513Z,66.91
2018-05-01T01:56:55.540Z,66.72
2018-05-01T01:57:55.571Z,66.97
2018-05-01T01:58:55.607Z,66.97
2018-05-01T01:59:55.648Z,67.44
2018-05-01T02:00:55.673Z,67.35
2018-05-01T02:01:55.706Z,67.25
2018-05-01T02:02:55.741Z,67.25
2018-05-01T02:03:55.771Z,67.25
2018-05-01T02:04:55.805Z,67.82
2018-05-01T02:05:55.840Z,68.01
2018-05-01T02:06:55.872Z,67.73
2018-05-01T02:07:55.906Z,68.01
2018-05-01T02:08:55.937Z,68.11
2018-05-01T02:09:55.971Z,68.68
2018-05-01T02:10:56.005Z,68.96
2018-05-01T02:11:56.038Z,69.25
2018-05-01T02:12:56.072Z,69.25
2018-05-01T02:13:56.103Z,68.87
2018-05-01T02:14:56.137Z,68.87
2018-05-01T02:15:56.169Z,68.87
2018-05-01T02:16:56.202Z,69.15
2018-05-01T02:17:56.236Z,69.06
2018-05-01T02:18:56.269Z,69.15
2018-05-01T02:19:56.310Z,69.06
2018-05-01T02:20:56.334Z,69.50
2018-05-01T02:21:56.368Z,69.88
2018-05-01T02:22:56.402Z,70.10
2018-05-01T02:23:56.433Z,69.92
2018-05-01T02:24:56.467Z,70.68
2018-05-01T02:25:56.502Z,70.36
2018-05-01T02:26:56.535Z,69.69
2018-05-01T02:27:56.566Z,70.07
2018-05-01T02:28:56.600Z,69.63
2018-05-01T02:29:56.633Z,69.50
2018-05-01T02:30:56.678Z,70.20
2018-05-01T02:31:56.699Z,70.07
2018-05-01T02:32:56.739Z,70.17
2018-05-01T02:33:56.771Z,70.36
2018-05-01T02:34:56.799Z,70.07
2018-05-01T02:35:56.837Z,70.45
2018-05-01T02:36:56.869Z,70.45
2018-05-01T02:37:56.895Z,71.02
2018-05-01T02:38:56.933Z,71.22
2018-05-01T02:39:56.963Z,70.93
2018-05-01T02:40:56.998Z,70.36
2018-05-01T02:41:57.029Z,70.36
2018-05-01T02:42:57.062Z,70.74
2018-05-01T02:43:57.098Z,70.87
2018-05-01T02:44:57.129Z,70.26
2018-05-01T02:45:57.160Z,70.17
2018-05-01T02:46:57.193Z,70.20
2018-05-01T02:47:57.229Z,70.10
2018-05-01T02:48:57.267Z,70.39
2018-05-01T02:49:57.292Z,70.97
2018-05-01T02:50:57.325Z,70.58
2018-05-01T02:51:57.367Z,70.87
2018-05-01T02:52:57.394Z,70.68
2018-05-01T02:53:57.424Z,71.34
2018-05-01T02:54:57.461Z,71.34
2018-05-01T02:55:57.490Z,71.15
2018-05-01T02:56:57.523Z,70.87
2018-05-01T02:57:57.557Z,70.77
2018-05-01T02:58:57.589Z,71.06
2018-05-01T02:59:57.620Z,70.87
2018-05-01T03:00:57.655Z,70.58
2018-05-01T03:01:57.688Z,71.06
2018-05-01T03:02:57.729Z,71.25
2018-05-01T03:03:57.755Z,70.87
2018-05-01T03:04:57.793Z,71.34
2018-05-01T03:05:57.819Z,70.77
2018-05-01T03:06:57.863Z,70.97
2018-05-01T03:07:57.892Z,70.68
2018-05-01T03:08:57.920Z,70.39
2018-05-01T03:09:57.954Z,70.68
2018-05-01T03:10:57.987Z,70.87
2018-05-01T03:11:58.026Z,70.49
2018-05-01T03:12:58.054Z,70.30
2018-05-01T03:13:58.085Z,70.30
2018-05-01T03:14:58.122Z,70.58
2018-05-01T03:15:58.150Z,70.77
2018-05-01T03:16:58.185Z,70.87
2018-05-01T03:17:58.219Z,70.49
2018-05-01T03:18:58.250Z,70.77
2018-05-01T03:19:58.281Z,71.06
2018-05-01T03:20:58.315Z,71.72
2018-05-01T03:21:58.351Z,71.82
2018-05-01T03:22:58.387Z,71.15
2018-05-01T03:23:58.414Z,71.06
2018-05-01T03:24:58.448Z,71.25
2018-05-01T03:25:58.486Z,71.06
2018-05-01T03:26:58.516Z,71.44
2018-05-01T03:27:58.548Z,71.34
2018-05-01T03:28:58.582Z,71.72
2018-05-01T03:29:58.615Z,72.20
2018-05-01T03:30:58.656Z,71.91
2018-05-01T03:31:58.683Z,71.91
2018-05-01T03:32:58.714Z,71.53
2018-05-01T03:33:58.750Z,71.63
2018-05-01T03:34:58.785Z,72.20
2018-05-01T03:35:58.814Z,71.53
2018-05-01T03:36:58.849Z,72.11
2018-05-01T03:37:58.881Z,71.63
2018-05-01T03:38:58.922Z,71.53
2018-05-01T03:39:58.949Z,72.30
2018-05-01T03:40:58.982Z,72.01
2018-05-01T03:41:59.017Z,72.20
2018-05-01T03:42:59.050Z,72.39
2018-05-01T03:43:59.080Z,72.58
2018-05-01T03:44:59.113Z,72.30
2018-05-01T03:45:59.148Z,72.20
2018-05-01T03:46:59.183Z,72.67
2018-05-01T03:47:59.218Z,72.86
2018-05-01T03:48:59.248Z,73.53
2018-05-01T03:49:59.287Z,72.20
2018-05-01T03:50:59.314Z,72.77
2018-05-01T03:51:59.352Z,72.58
2018-05-01T03:52:59.381Z,72.67
2018-05-01T03:53:59.413Z,73.06
2018-05-01T03:54:59.447Z,72.30
2018-05-01T03:55:59.567Z,72.49
2018-05-01T03:56:59.511Z,72.86
2018-05-01T03:57:59.548Z,73.53
2018-05-01T03:58:59.580Z,73.15
2018-05-01T03:59:59.613Z,72.86
2018-05-01T04:00:59.647Z,72.96
2018-05-01T04:01:59.681Z,73.15
2018-05-01T04:02:59.717Z,73.15
2018-05-01T04:03:59.746Z,73.15
2018-05-01T04:04:59.784Z,72.86
2018-05-01T04:05:59.816Z,72.86
2018-05-01T04:06:59.848Z,72.77
2018-05-01T04:07:59.879Z,72.39
2018-05-01T04:08:59.913Z,72.67
2018-05-01T04:09:59.945Z,72.77
2018-05-01T04:10:59.981Z,73.15
2018-05-01T04:12:00.015Z,73.15
2018-05-01T04:13:00.050Z,72.86
2018-05-01T04:14:00.079Z,73.34
2018-05-01T04:15:00.123Z,72.96
2018-05-01T04:16:00.148Z,72.86
2018-05-01T04:17:00.177Z,72.86
2018-05-01T04:18:00.213Z,73.25
2018-05-01T04:19:00.249Z,73.06
2018-05-01T04:20:00.280Z,73.91
2018-05-01T04:21:00.311Z,73.82
2018-05-01T04:22:00.344Z,74.20
2018-05-01T04:23:00.379Z,73.44
2018-05-01T04:24:00.414Z,73.25
2018-05-01T04:25:00.443Z,73.06
2018-05-01T04:26:00.555Z,73.53
2018-05-01T04:27:00.511Z,74.10
2018-05-01T04:28:00.542Z,73.72
2018-05-01T04:29:00.576Z,72.86
2018-05-01T04:30:00.607Z,73.34
2018-05-01T04:31:00.643Z,73.06
2018-05-01T04:32:00.677Z,73.44
2018-05-01T04:33:00.708Z,72.49
2018-05-01T04:34:00.741Z,73.53
2018-05-01T04:35:00.779Z,73.15
2018-05-01T04:36:00.807Z,72.86
2018-05-01T04:37:00.842Z,72.67
2018-05-01T04:38:00.875Z,72.39
2018-05-01T04:39:01.436Z,72.39
2018-05-01T04:40:00.941Z,72.39
2018-05-01T04:41:00.973Z,72.67
2018-05-01T04:42:01.007Z,73.06
2018-05-01T04:43:01.048Z,72.77
2018-05-01T04:44:01.081Z,73.25
2018-05-01T04:45:01.105Z,73.25
2018-05-01T04:46:01.140Z,73.06
2018-05-01T04:47:01.174Z,72.67
2018-05-01T04:48:01.206Z,72.86
2018-05-01T04:49:01.240Z,72.67
2018-05-01T04:50:01.272Z,72.77
2018-05-01T04:51:01.306Z,73.06
2018-05-01T04:52:01.338Z,72.96
2018-05-01T04:53:01.372Z,73.72
2018-05-01T04:54:01.405Z,72.86
2018-05-01T04:55:01.440Z,72.96
2018-05-01T04:56:01.473Z,72.96
2018-05-01T04:57:01.504Z,73.34
2018-05-01T04:58:01.539Z,72.77
2018-05-01T04:59:01.575Z,72.67
2018-05-01T05:00:01.604Z,73.15
2018-05-01T05:01:01.639Z,73.53
2018-05-01T05:02:01.671Z,73.25
2018-05-01T05:03:01.707Z,73.06
2018-05-01T05:04:01.740Z,73.63
2018-05-01T05:05:01.769Z,73.91
2018-05-01T05:06:01.802Z,74.16
2018-05-01T05:07:01.835Z,73.78
2018-05-01T05:08:01.868Z,74.35
2018-05-01T05:09:01.901Z,74.39
2018-05-01T05:10:01.939Z,74.10
2018-05-01T05:11:01.968Z,74.10
2018-05-01T05:12:02.000Z,74.10
2018-05-01T05:13:02.037Z,74.10
2018-05-01T05:14:02.068Z,73.63
2018-05-01T05:15:02.105Z,74.20
2018-05-01T05:16:02.139Z,74.10
2018-05-01T05:17:02.169Z,74.20
2018-05-01T05:18:02.201Z,73.53
2018-05-01T05:19:02.233Z,73.63
2018-05-01T05:20:02.267Z,73.15
2018-05-01T05:21:02.299Z,73.15
2018-05-01T05:22:02.331Z,72.86
2018-05-01T05:23:02.365Z,73.53
2018-05-01T05:24:02.398Z,73.72
2018-05-01T05:25:02.432Z,73.06
2018-05-01T05:26:02.465Z,72.20
2018-05-01T05:27:02.505Z,71.63
2018-05-01T05:28:02.532Z,71.82
2018-05-01T05:29:02.565Z,72.11
2018-05-01T05:30:02.599Z,73.53
2018-05-01T05:31:02.704Z,72.39
2018-05-01T05:32:02.664Z,72.96
2018-05-01T05:33:02.708Z,72.49
2018-05-01T05:34:02.732Z,72.39
2018-05-01T05:35:02.764Z,72.11
2018-05-01T05:36:02.798Z,72.49
2018-05-01T05:37:02.831Z,72.49
2018-05-01T05:38:02.863Z,72.39
2018-05-01T05:39:02.896Z,72.39
2018-05-01T05:40:02.928Z,73.53
2018-05-01T05:41:02.963Z,73.25
2018-05-01T05:42:02.995Z,72.96
2018-05-01T05:43:03.029Z,73.34
2018-05-01T05:44:03.061Z,73.25
2018-05-01T05:45:03.095Z,72.67
2018-05-01T05:46:03.129Z,72.77
2018-05-01T05:47:03.162Z,72.67
2018-05-01T05:48:03.195Z,72.49
2018-05-01T05:49:03.228Z,72.39
2018-05-01T05:50:03.263Z,72.42
2018-05-01T05:51:03.295Z,71.95
2018-05-01T05:52:03.330Z,71.09
2018-05-01T05:53:03.361Z,71.19
2018-05-01T05:54:03.394Z,71.67
2018-05-01T05:55:03.429Z,71.95
2018-05-01T05:56:03.460Z,71.95
2018-05-01T05:57:03.514Z,71.09
2018-05-01T05:58:03.536Z,71.19
2018-05-01T05:59:03.561Z,71.19
2018-05-01T06:00:03.594Z,71.00
2018-05-01T06:01:03.630Z,71.38
2018-05-01T06:02:03.660Z,70.81
2018-05-01T06:03:03.696Z,70.72
2018-05-01T06:04:03.729Z,70.52
2018-05-01T06:05:03.761Z,70.62
2018-05-01T06:06:03.796Z,70.72
2018-05-01T06:07:04.345Z,70.72
2018-05-01T06:08:03.863Z,70.56
2018-05-01T06:09:03.898Z,70.56
2018-05-01T06:10:03.930Z,69.51
2018-05-01T06:11:03.963Z,69.99
2018-05-01T06:12:03.997Z,70.18
2018-05-01T06:13:04.033Z,70.27
2018-05-01T06:14:04.066Z,70.18
2018-05-01T06:15:04.096Z,69.89
2018-05-01T06:16:04.130Z,70.08
2018-05-01T06:17:04.165Z,70.37
2018-05-01T06:18:04.197Z,69.99
2018-05-01T06:19:04.316Z,69.42
2018-05-01T06:20:04.273Z,70.21
2018-05-01T06:21:04.299Z,69.45
2018-05-01T06:22:04.449Z,68.40
2018-05-01T06:23:04.368Z,68.40
2018-05-01T06:24:04.399Z,68.21
2018-05-01T06:25:04.435Z,68.78
2018-05-01T06:26:04.469Z,68.84
2018-05-01T06:27:04.504Z,69.13
2018-05-01T06:28:04.537Z,69.51
2018-05-01T06:29:04.569Z,69.70
2018-05-01T06:30:04.603Z,69.35
2018-05-01T06:31:04.711Z,69.54
2018-05-01T06:32:04.677Z,68.98
2018-05-01T06:33:04.705Z,68.34
2018-05-01T06:34:04.744Z,67.93
2018-05-01T06:35:04.775Z,68.40
2018-05-01T06:36:04.846Z,68.50
2018-05-01T06:37:04.841Z,66.97
2018-05-01T06:38:04.880Z,66.91
2018-05-01T06:39:04.927Z,67.00
2018-05-01T06:40:04.943Z,66.44
2018-05-01T06:41:04.984Z,65.96
2018-05-01T06:42:05.014Z,66.72
2018-05-01T06:43:05.050Z,66.05
2018-05-01T06:44:05.082Z,66.72
2018-05-01T06:45:05.116Z,66.82
2018-05-01T06:46:05.151Z,67.10
2018-05-01T06:47:05.197Z,66.91
2018-05-01T06:48:05.225Z,65.96
2018-05-01T06:49:05.256Z,65.77
2018-05-01T06:50:05.321Z,65.67
2018-05-01T06:51:05.330Z,65.67
2018-05-01T06:52:05.355Z,65.86
2018-05-01T06:53:05.393Z,65.77
2018-05-01T06:54:05.424Z,65.96
2018-05-01T06:55:05.465Z,65.86
2018-05-01T06:56:05.495Z,65.89
2018-05-01T06:57:05.539Z,65.80
2018-05-01T06:58:05.568Z,65.96
2018-05-01T06:59:05.596Z,66.28
2018-05-01T07:00:05.632Z,66.53
2018-05-01T07:01:05.668Z,65.10
2018-05-01T07:02:05.701Z,65.10
2018-05-01T07:03:05.769Z,65.48
2018-05-01T07:04:05.774Z,64.34
2018-05-01T07:05:05.805Z,63.86
2018-05-01T07:06:05.844Z,63.70
2018-05-01T07:07:05.898Z,63.89
2018-05-01T07:08:05.909Z,64.37
2018-05-01T07:09:05.943Z,64.28
2018-05-01T07:10:05.999Z,63.89
2018-05-01T07:11:06.016Z,63.60
2018-05-01T07:12:06.048Z,64.75
2018-05-01T07:13:06.085Z,64.75
2018-05-01T07:14:06.119Z,65.42
2018-05-01T07:15:06.155Z,64.75
2018-05-01T07:16:06.189Z,65.13
2018-05-01T07:17:06.233Z,65.23
2018-05-01T07:18:06.261Z,65.04
2018-05-01T07:19:06.300Z,64.65
2018-05-01T07:20:06.328Z,63.60
2018-05-01T07:21:06.432Z,63.80
2018-05-01T07:22:06.401Z,63.89
2018-05-01T07:23:06.436Z,63.70
2018-05-01T07:24:06.467Z,63.80
2018-05-01T07:25:06.507Z,63.80
2018-05-01T07:26:06.538Z,63.32
2018-05-01T07:27:06.576Z,63.60
2018-05-01T07:28:06.611Z,62.94
2018-05-01T07:29:06.653Z,62.62
2018-05-01T07:30:06.683Z,62.91
2018-05-01T07:31:06.724Z,63.20
2018-05-01T07:32:06.746Z,63.67
2018-05-01T07:33:06.786Z,63.86
2018-05-01T07:34:06.826Z,64.15
2018-05-01T07:35:06.853Z,63.76
2018-05-01T07:36:06.890Z,63.57
2018-05-01T07:37:06.923Z,63.00
2018-05-01T07:38:06.958Z,63.67
2018-05-01T07:39:07.004Z,64.62
2018-05-01T07:40:07.077Z,64.53
2018-05-01T07:41:07.064Z,64.53
2018-05-01T07:42:07.098Z,64.72
2018-05-01T07:43:07.133Z,64.53
2018-05-01T07:44:07.170Z,64.43
2018-05-01T07:45:07.258Z,64.53
2018-05-01T07:46:07.297Z,64.62
2018-05-01T07:47:07.272Z,65.00
2018-05-01T07:48:07.309Z,65.00
2018-05-01T07:49:07.351Z,64.43
2018-05-01T07:50:07.397Z,64.53
2018-05-01T07:51:07.418Z,64.28
2018-05-01T07:52:07.446Z,64.75
2018-05-01T07:53:07.488Z,63.86
2018-05-01T07:54:07.536Z,63.96
2018-05-01T07:55:07.620Z,63.29
2018-05-01T07:56:07.594Z,62.72
2018-05-01T07:57:07.629Z,62.84
2018-05-01T07:58:07.657Z,62.75
2018-05-01T07:59:07.705Z,63.13
2018-05-01T08:00:07.727Z,62.46
2018-05-01T08:01:07.767Z,61.41
2018-05-01T08:02:07.796Z,61.70
2018-05-01T08:03:07.831Z,63.04
2018-05-01T08:04:07.868Z,62.37
2018-05-01T08:05:07.995Z,62.18
2018-05-01T08:06:07.938Z,62.75
2018-05-01T08:07:07.973Z,62.94
2018-05-01T08:08:08.016Z,62.65
2018-05-01T08:09:08.044Z,63.04
2018-05-01T08:10:08.077Z,62.65
2018-05-01T08:11:08.129Z,62.27
2018-05-01T08:12:08.232Z,62.94
2018-05-01T08:13:08.186Z,63.99
2018-05-01T08:14:08.220Z,61.89
2018-05-01T08:15:08.276Z,61.80
2018-05-01T08:16:08.291Z,62.56
2018-05-01T08:17:08.326Z,62.75
2018-05-01T08:18:08.370Z,63.13
2018-05-01T08:19:08.405Z,63.60
2018-05-01T08:20:08.440Z,62.56
2018-05-01T08:21:08.472Z,62.37
2018-05-01T08:22:08.504Z,63.13
2018-05-01T08:23:08.539Z,61.80
2018-05-01T08:24:08.740Z,61.13
2018-05-01T08:25:08.611Z,61.13
2018-05-01T08:26:08.665Z,61.32
2018-05-01T08:27:08.680Z,61.22
2018-05-01T08:28:08.716Z,61.19
2018-05-01T08:29:08.757Z,62.15
2018-05-01T08:30:08.786Z,62.34
2018-05-01T08:31:08.824Z,62.91
2018-05-01T08:32:08.858Z,63.00
2018-05-01T08:33:08.908Z,62.94
2018-05-01T08:34:08.927Z,62.46
2018-05-01T08:35:08.966Z,62.72
2018-05-01T08:36:09.000Z,63.20
2018-05-01T08:37:09.035Z,62.81
2018-05-01T08:38:09.078Z,63.10
2018-05-01T08:39:09.107Z,63.00
2018-05-01T08:40:09.147Z,63.10
2018-05-01T08:41:09.399Z,63.00
2018-05-01T08:42:09.213Z,63.96
2018-05-01T08:43:09.248Z,63.76
2018-05-01T08:44:09.289Z,63.86
2018-05-01T08:45:09.321Z,63.76
2018-05-01T08:46:09.358Z,63.96
2018-05-01T08:47:09.387Z,63.86
2018-05-01T08:48:09.434Z,63.76
2018-05-01T08:49:09.522Z,63.48
2018-05-01T08:50:09.492Z,63.51
2018-05-01T08:51:09.528Z,63.51
2018-05-01T08:52:09.586Z,62.27
2018-05-01T08:53:09.597Z,62.27
2018-05-01T08:54:09.635Z,61.60
2018-05-01T08:55:09.680Z,61.41
2018-05-01T08:56:09.911Z,61.99
2018-05-01T08:57:09.814Z,62.46
2018-05-01T08:58:09.776Z,62.08
2018-05-01T08:59:10.022Z,62.62
2018-05-01T09:00:09.898Z,62.24
2018-05-01T09:01:09.888Z,62.43
2018-05-01T09:02:09.914Z,61.67
2018-05-01T09:03:09.951Z,61.60
2018-05-01T09:04:10.004Z,61.07
2018-05-01T09:05:10.029Z,60.58
2018-05-01T09:06:10.135Z,60.21
2018-05-01T09:07:10.090Z,60.71
2018-05-01T09:08:10.239Z,60.14
2018-05-01T09:09:10.365Z,59.28
2018-05-01T09:10:10.195Z,58.42
2018-05-01T09:11:10.238Z,57.85
2018-05-01T09:12:10.294Z,58.61
2018-05-01T09:13:10.302Z,57.18
2018-05-01T09:14:10.351Z,57.18
2018-05-01T09:15:10.386Z,57.06
2018-05-01T09:16:10.410Z,58.42
2018-05-01T09:17:10.486Z,57.72
2018-05-01T09:18:10.505Z,58.48
2018-05-01T09:19:10.516Z,58.48
2018-05-01T09:20:10.554Z,59.06
2018-05-01T09:21:10.584Z,58.68
2018-05-01T09:22:10.627Z,59.25
2018-05-01T09:23:10.660Z,59.44
2018-05-01T09:24:10.707Z,60.21
2018-05-01T09:25:10.730Z,60.21
2018-05-01T09:26:10.765Z,60.02
2018-05-01T09:27:10.799Z,59.34
2018-05-01T09:28:10.833Z,59.76
2018-05-01T09:29:10.872Z,59.28
2018-05-01T09:30:10.907Z,58.14
2018-05-01T09:31:10.943Z,58.16
2018-05-01T09:32:10.978Z,57.11
2018-05-01T09:33:11.095Z,57.21
2018-05-01T09:34:11.066Z,57.24
2018-05-01T09:35:11.524Z,55.42
2018-05-01T09:36:11.122Z,53.89
2018-05-01T09:37:11.160Z,53.51
2018-05-01T09:38:11.193Z,53.32
2018-05-01T09:39:11.229Z,52.84
2018-05-01T09:40:11.269Z,52.84
2018-05-01T09:41:11.302Z,53.44
2018-05-01T09:42:11.384Z,53.63
2018-05-01T09:43:11.374Z,53.25
2018-05-01T09:44:11.694Z,53.06
2018-05-01T09:45:11.671Z,53.16
2018-05-01T09:46:11.709Z,53.25
2018-05-01T09:47:11.574Z,52.87
2018-05-01T09:48:11.572Z,54.02
2018-05-01T09:49:11.592Z,53.25
2018-05-01T09:50:11.633Z,53.08
2018-05-01T09:51:11.712Z,53.18
2018-05-01T09:52:11.806Z,51.46
2018-05-01T09:53:11.785Z,51.36
2018-05-01T09:54:11.782Z,52.42
2018-05-01T09:55:11.817Z,52.32
2018-05-01T09:56:11.855Z,52.70
2018-05-01T09:57:11.898Z,51.84
2018-05-01T09:58:11.926Z,52.63
2018-05-01T09:59:11.971Z,51.36
2018-05-01T10:00:12.005Z,51.77
2018-05-01T10:01:12.037Z,50.60
2018-05-01T10:02:12.498Z,51.27
2018-05-01T10:03:12.351Z,52.89
2018-05-01T10:04:12.285Z,52.03
2018-05-01T10:05:12.205Z,51.81
2018-05-01T10:06:12.225Z,51.91
2018-05-01T10:07:12.276Z,52.58
2018-05-01T10:08:12.309Z,53.34
2018-05-01T10:09:12.345Z,53.16
2018-05-01T10:10:12.374Z,52.29
2018-05-01T10:11:12.415Z,52.13
2018-05-01T10:12:12.482Z,52.89
2018-05-01T10:13:12.504Z,53.56
2018-05-01T10:14:12.530Z,52.61
2018-05-01T10:15:12.561Z,51.07
2018-05-01T10:16:12.598Z,51.39
2018-05-01T10:17:12.638Z,50.70
2018-05-01T10:18:12.673Z,49.74
2018-05-01T10:19:12.712Z,49.35
2018-05-01T10:20:12.924Z,50.21
2018-05-01T10:21:12.786Z,52.22
2018-05-01T10:22:12.822Z,51.17
2018-05-01T10:23:12.861Z,50.89
2018-05-01T10:24:12.902Z,50.70
2018-05-01T10:25:12.938Z,49.45
2018-05-01T10:26:12.983Z,49.07
2018-05-01T10:27:13.015Z,48.02
2018-05-01T10:28:13.054Z,48.78
2018-05-01T10:29:13.085Z,48.88
2018-05-01T10:30:13.122Z,49.55
2018-05-01T10:31:13.162Z,49.07
2018-05-01T10:32:13.249Z,49.19
2018-05-01T10:33:13.234Z,49.55
2018-05-01T10:34:13.279Z,49.84
2018-05-01T10:35:13.314Z,47.53
2018-05-01T10:36:13.347Z,47.25
2018-05-01T10:37:13.386Z,47.34
2018-05-01T10:38:13.424Z,46.30
2018-05-01T10:39:13.461Z,46.39
2018-05-01T10:40:13.502Z,45.91
2018-05-01T10:41:13.535Z,45.05
2018-05-01T10:42:13.576Z,45.53
2018-05-01T10:43:13.610Z,45.65
2018-05-01T10:44:13.653Z,47.18
2018-05-01T10:45:13.685Z,46.12
2018-05-01T10:46:13.724Z,44.98
2018-05-01T10:47:13.768Z,43.73
2018-05-01T10:48:13.798Z,42.51
2018-05-01T10:49:13.835Z,42.80
2018-05-01T10:50:13.875Z,41.74
2018-05-01T10:51:13.915Z,41.27
2018-05-01T10:52:13.948Z,40.69
2018-05-01T10:53:13.987Z,41.19
2018-05-01T10:54:14.026Z,40.88
2018-05-01T10:55:14.071Z,40.61
2018-05-01T10:56:14.099Z,41.00
2018-05-01T10:57:14.146Z,41.77
2018-05-01T10:58:14.178Z,42.14
2018-05-01T10:59:14.223Z,42.44
2018-05-01T11:00:14.339Z,41.96
2018-05-01T11:01:14.290Z,40.33
2018-05-01T11:02:14.328Z,40.04
2018-05-01T11:03:14.441Z,40.33
2018-05-01T11:04:14.405Z,41.27
2018-05-01T11:05:14.442Z,41.55
2018-05-01T11:06:14.480Z,41.36
2018-05-01T11:07:14.520Z,41.55
2018-05-01T11:08:14.561Z,41.46
2018-05-01T11:09:14.597Z,42.13
2018-05-01T11:10:14.639Z,42.60
2018-05-01T11:11:14.674Z,42.53
2018-05-01T11:12:14.709Z,40.59
2018-05-01T11:13:14.748Z,40.78
2018-05-01T11:14:14.793Z,42.41
2018-05-01T11:15:14.842Z,42.30
2018-05-01T11:16:14.862Z,41.82
2018-05-01T11:17:14.909Z,43.35
2018-05-01T11:18:14.943Z,43.73
2018-05-01T11:19:14.977Z,43.35
2018-05-01T11:20:15.020Z,43.54
2018-05-01T11:21:15.054Z,42.97
2018-05-01T11:22:15.099Z,42.87
2018-05-01T11:23:15.131Z,42.27
2018-05-01T11:24:15.165Z,41.99
2018-05-01T11:25:15.207Z,42.49
2018-05-01T11:26:15.263Z,42.77
2018-05-01T11:27:15.279Z,41.17
2018-05-01T11:28:15.316Z,40.59
2018-05-01T11:29:15.354Z,40.88
2018-05-01T11:30:15.390Z,40.69
2018-05-01T11:31:15.430Z,40.71
2018-05-01T11:32:15.468Z,40.14
2018-05-01T11:33:15.578Z,40.14
2018-05-01T11:34:15.543Z,39.54
2018-05-01T11:35:15.581Z,40.02
2018-05-01T11:36:15.619Z,41.74
2018-05-01T11:37:15.656Z,41.84
2018-05-01T11:38:15.697Z,42.03
2018-05-01T11:39:15.733Z,41.55
2018-05-01T11:40:15.777Z,41.53
2018-05-01T11:41:15.808Z,41.15
2018-05-01T11:42:15.845Z,41.44
2018-05-01T11:43:15.894Z,41.24
2018-05-01T11:44:15.920Z,41.99
2018-05-01T11:45:15.974Z,42.08
2018-05-01T11:46:15.997Z,42.37
2018-05-01T11:47:16.043Z,42.37
2018-05-01T11:48:16.070Z,42.47
2018-05-01T11:49:16.109Z,42.76
2018-05-01T11:50:16.145Z,43.71
2018-05-01T11:51:16.186Z,42.97
2018-05-01T11:52:16.222Z,42.01
2018-05-01T11:53:16.257Z,41.34
2018-05-01T11:54:16.300Z,40.58
2018-05-01T11:55:16.334Z,40.48
2018-05-01T11:56:16.382Z,41.63
2018-05-01T11:57:16.886Z,40.95
2018-05-01T11:58:16.445Z,41.44
2018-05-01T11:59:16.488Z,42.01
2018-05-01T12:00:16.522Z,42.30
2018-05-01T12:01:16.557Z,42.49
2018-05-01T12:02:16.641Z,42.58
2018-05-01T12:03:16.635Z,41.05
2018-05-01T12:04:16.673Z,40.38
2018-05-01T12:05:16.708Z,41.27
2018-05-01T12:06:16.745Z,41.53
2018-05-01T12:07:16.782Z,41.63
2018-05-01T12:08:16.818Z,41.07
2018-05-01T12:09:16.857Z,40.41
2018-05-01T12:10:16.895Z,40.59
2018-05-01T12:11:16.932Z,41.46
2018-05-01T12:12:16.974Z,42.90
2018-05-01T12:13:17.008Z,41.94
2018-05-01T12:14:17.045Z,40.88
2018-05-01T12:15:17.081Z,40.02
2018-05-01T12:16:17.119Z,40.88
2018-05-01T12:17:17.162Z,40.41
2018-05-01T12:18:17.195Z,40.31
2018-05-01T12:19:17.231Z,40.02
2018-05-01T12:20:17.276Z,40.02
2018-05-01T12:21:17.320Z,40.12
2018-05-01T12:22:17.343Z,39.73
2018-05-01T12:23:17.380Z,38.30
2018-05-01T12:24:17.432Z,39.45
2018-05-01T12:25:17.455Z,38.96
2018-05-01T12:26:17.493Z,38.79
2018-05-01T12:27:17.529Z,38.30
2018-05-01T12:28:17.572Z,38.39
2018-05-01T12:29:17.624Z,38.49
2018-05-01T12:30:17.653Z,38.10
2018-05-01T12:31:17.683Z,39.16
2018-05-01T12:32:17.721Z,39.52
2018-05-01T12:33:17.757Z,39.43
2018-05-01T12:34:17.792Z,40.48
2018-05-01T12:35:17.831Z,40.86
2018-05-01T12:36:17.875Z,40.21
2018-05-01T12:37:17.907Z,39.43
2018-05-01T12:38:18.002Z,39.62
2018-05-01T12:39:17.986Z,40.38
2018-05-01T12:40:18.024Z,39.81
2018-05-01T12:41:18.060Z,40.38
2018-05-01T12:42:18.093Z,39.73
2018-05-01T12:43:18.132Z,39.54
2018-05-01T12:44:18.177Z,40.12
2018-05-01T12:45:18.209Z,40.50
2018-05-01T12:46:18.242Z,40.12
2018-05-01T12:47:18.282Z,39.06
2018-05-01T12:48:18.377Z,38.37
2018-05-01T12:49:18.361Z,37.99
2018-05-01T12:50:18.394Z,38.01
2018-05-01T12:51:18.431Z,38.78
2018-05-01T12:52:18.468Z,38.87
2018-05-01T12:53:18.504Z,39.64
2018-05-01T12:54:18.541Z,39.83